createdAt,value
2018-03-25T00:00:33.565Z,1.20
2018-03-25T00:03:01.575Z,1.20
2018-03-25T00:05:29.569Z,1.10
2018-03-25T00:07:58.340Z,1.00
2018-03-25T00:10:26.340Z,0.90
2018-03-25T00:12:55.112Z,0.80
2018-03-25T00:15:23.101Z,0.70
2018-03-25T00:17:51.096Z,0.90
2018-03-25T00:20:19.092Z,0.70
2018-03-25T00:22:47.848Z,0.60
2018-03-25T00:25:15.850Z,0.50
2018-03-25T00:27:45.368Z,0.70
2018-03-25T00:30:13.352Z,0.70
2018-03-25T00:32:41.352Z,0.70
2018-03-25T00:35:10.124Z,0.80
2018-03-25T00:37:38.112Z,0.70
2018-03-25T00:40:06.133Z,0.80
2018-03-25T00:42:34.896Z,0.60
2018-03-25T00:45:02.892Z,0.60
2018-03-25T00:47:31.028Z,0.70
2018-03-25T00:49:58.904Z,0.60
2018-03-25T00:52:26.901Z,0.50
2018-03-25T00:54:54.906Z,0.50
2018-03-25T00:57:22.900Z,0.50
2018-03-25T00:59:50.887Z,0.50
2018-03-25T01:02:18.895Z,0.50
2018-03-25T01:04:47.668Z,0.50
2018-03-25T01:07:15.657Z,0.40
2018-03-25T01:09:43.652Z,0.40
2018-03-25T01:12:12.423Z,0.40
2018-03-25T01:14:40.416Z,0.30
2018-03-25T01:17:08.420Z,0.20
2018-03-25T01:19:37.180Z,-0.10
2018-03-25T01:22:05.172Z,-0.20
2018-03-25T01:24:33.175Z,-0.10
2018-03-25T01:27:01.946Z,0.10
2018-03-25T01:29:29.948Z,0.00
2018-03-25T01:31:58.732Z,0.10
2018-03-25T01:34:26.736Z,0.10
2018-03-25T01:36:55.500Z,0.20
2018-03-25T01:39:23.500Z,0.20
2018-03-25T01:41:51.497Z,0.20
2018-03-25T01:44:19.479Z,0.20
2018-03-25T01:46:47.484Z,0.20
2018-03-25T01:49:16.248Z,0.20
2018-03-25T01:51:44.232Z,0.20
2018-03-25T01:54:12.227Z,0.10
2018-03-25T01:56:40.228Z,0.00
2018-03-25T01:59:08.971Z,0.00
2018-03-25T02:01:36.975Z,0.00
2018-03-25T02:04:04.976Z,0.00
2018-03-25T02:06:32.965Z,0.10
2018-03-25T02:09:00.969Z,0.00
2018-03-25T02:11:29.739Z,-0.10
2018-03-25T02:13:57.753Z,-0.10
2018-03-25T02:16:25.780Z,-0.10
2018-03-25T02:18:53.788Z,-0.10
2018-03-25T02:21:21.781Z,-0.10
2018-03-25T02:23:50.556Z,-0.10
2018-03-25T02:26:18.564Z,-0.10
2018-03-25T02:28:47.320Z,-0.30
2018-03-25T02:31:15.324Z,-0.30
2018-03-25T02:33:43.333Z,-0.20
2018-03-25T02:36:12.091Z,-0.20
2018-03-25T02:38:40.101Z,-0.30
2018-03-25T02:41:08.108Z,-0.30
2018-03-25T02:43:36.885Z,-0.60
2018-03-25T02:46:04.888Z,-0.60
2018-03-25T02:48:33.665Z,-0.50
2018-03-25T02:51:01.667Z,-0.50
2018-03-25T02:53:30.437Z,-0.40
2018-03-25T02:55:58.453Z,-0.50
2018-03-25T02:58:27.231Z,-0.40
2018-03-25T03:00:55.281Z,-0.40
2018-03-25T03:03:24.001Z,-0.40
2018-03-25T03:05:51.987Z,-0.50
2018-03-25T03:08:19.996Z,-0.50
2018-03-25T03:10:48.002Z,-0.50
2018-03-25T03:13:15.991Z,-0.40
2018-03-25T03:15:44.003Z,-0.40
2018-03-25T03:18:12.008Z,-0.40
2018-03-25T03:20:39.992Z,-0.50
2018-03-25T03:23:09.500Z,-0.70
2018-03-25T03:25:37.508Z,-0.70
2018-03-25T03:28:06.267Z,-0.70
2018-03-25T03:30:34.269Z,-0.70
2018-03-25T03:33:02.281Z,-0.50
2018-03-25T03:35:31.040Z,-0.40
2018-03-25T03:37:59.056Z,-0.50
2018-03-25T03:40:27.075Z,-0.50
2018-03-25T03:42:55.060Z,-0.40
2018-03-25T03:45:23.064Z,-0.60
2018-03-25T03:47:51.065Z,-0.70
2018-03-25T03:50:19.064Z,-0.90
2018-03-25T03:52:47.070Z,-0.90
2018-03-25T03:55:15.078Z,-0.80
2018-03-25T03:57:43.068Z,-0.80
2018-03-25T04:00:11.071Z,-0.90
2018-03-25T04:02:39.076Z,-0.90
2018-03-25T04:05:07.072Z,-1.00
2018-03-25T04:07:35.840Z,-1.00
2018-03-25T04:10:03.845Z,-1.10
2018-03-25T04:12:31.933Z,-1.00
2018-03-25T04:14:59.936Z,-1.00
2018-03-25T04:17:27.948Z,-1.00
2018-03-25T04:19:55.943Z,-1.00
2018-03-25T04:22:23.953Z,-1.00
2018-03-25T04:24:53.473Z,-1.10
2018-03-25T04:27:21.460Z,-1.10
2018-03-25T04:29:50.235Z,-1.00
2018-03-25T04:32:18.244Z,-1.00
2018-03-25T04:34:46.240Z,-1.10
2018-03-25T04:37:15.013Z,-1.10
2018-03-25T04:39:43.021Z,-1.20
2018-03-25T04:42:11.777Z,-1.10
2018-03-25T04:44:40.777Z,-1.10
2018-03-25T04:47:08.788Z,-1.10
2018-03-25T04:49:36.781Z,-1.10
2018-03-25T04:52:04.783Z,-1.10
2018-03-25T04:54:33.552Z,-1.10
2018-03-25T04:57:01.552Z,-1.10
2018-03-25T04:59:29.592Z,-1.10
2018-03-25T05:01:57.565Z,-1.20
2018-03-25T05:04:25.554Z,-1.30
2018-03-25T05:06:53.560Z,-1.20
2018-03-25T05:09:21.568Z,-1.10
2018-03-25T05:11:50.329Z,-1.30
2018-03-25T05:14:18.335Z,-1.40
2018-03-25T05:16:46.347Z,-1.30
2018-03-25T05:19:15.105Z,-1.30
2018-03-25T05:21:43.108Z,-1.30
2018-03-25T05:24:11.152Z,-1.30
2018-03-25T05:26:39.137Z,-1.30
2018-03-25T05:29:07.143Z,-1.30
2018-03-25T05:31:35.154Z,-1.30
2018-03-25T05:34:03.949Z,-1.20
2018-03-25T05:36:32.725Z,-1.10
2018-03-25T05:39:00.741Z,-1.10
2018-03-25T05:41:29.529Z,-1.10
2018-03-25T05:43:58.304Z,-1.00
2018-03-25T05:46:26.320Z,-1.10
2018-03-25T05:48:55.096Z,-1.10
2018-03-25T05:51:23.094Z,-1.10
2018-03-25T05:53:51.880Z,-0.90
2018-03-25T05:56:19.872Z,-1.00
2018-03-25T05:58:49.404Z,-0.90
2018-03-25T06:01:18.191Z,-0.80
2018-03-25T06:03:46.176Z,-0.90
2018-03-25T06:06:14.175Z,-0.70
2018-03-25T06:08:42.948Z,-0.50
2018-03-25T06:11:10.936Z,-0.60
2018-03-25T06:13:38.948Z,-0.50
2018-03-25T06:16:07.736Z,-0.20
2018-03-25T06:18:35.725Z,-0.30
2018-03-25T06:21:04.496Z,0.10
2018-03-25T06:23:33.485Z,0.00
2018-03-25T06:26:01.464Z,0.10
2018-03-25T06:28:29.471Z,0.10
2018-03-25T06:30:57.483Z,0.20
2018-03-25T06:33:26.227Z,0.10
2018-03-25T06:35:54.240Z,0.10
2018-03-25T06:38:22.239Z,0.10
2018-03-25T06:40:50.996Z,0.20
2018-03-25T06:43:19.016Z,0.20
2018-03-25T06:45:47.016Z,0.40
2018-03-25T06:48:15.796Z,0.60
2018-03-25T06:50:43.800Z,0.60
2018-03-25T06:53:12.576Z,0.90
2018-03-25T06:55:40.571Z,0.80
2018-03-25T06:58:09.341Z,0.60
2018-03-25T07:00:37.344Z,0.60
2018-03-25T07:03:05.341Z,0.60
2018-03-25T07:05:34.113Z,0.70
2018-03-25T07:08:02.116Z,0.70
2018-03-25T07:10:30.120Z,1.00
2018-03-25T07:12:58.910Z,1.30
2018-03-25T07:15:27.685Z,1.30
2018-03-25T07:17:55.695Z,1.30
2018-03-25T07:20:24.465Z,1.60
2018-03-25T07:22:52.464Z,1.60
2018-03-25T07:25:21.225Z,1.90
2018-03-25T07:27:49.223Z,1.80
2018-03-25T07:30:17.231Z,2.00
2018-03-25T07:32:45.993Z,2.20
2018-03-25T07:35:13.997Z,2.20
2018-03-25T07:37:42.002Z,2.40
2018-03-25T07:40:10.756Z,2.70
2018-03-25T07:42:38.756Z,2.70
2018-03-25T07:45:06.765Z,2.80
2018-03-25T07:47:35.528Z,3.00
2018-03-25T07:50:03.598Z,2.90
2018-03-25T07:52:31.537Z,3.20
2018-03-25T07:55:00.302Z,3.60
2018-03-25T07:57:28.313Z,3.60
2018-03-25T07:59:56.333Z,3.80
2018-03-25T08:02:24.328Z,3.90
2018-03-25T08:04:52.336Z,3.80
2018-03-25T08:07:20.352Z,3.90
2018-03-25T08:09:49.099Z,4.30
2018-03-25T08:12:17.117Z,4.20
2018-03-25T08:14:45.108Z,4.40
2018-03-25T08:17:13.868Z,4.60
2018-03-25T08:19:41.877Z,4.50
2018-03-25T08:22:09.879Z,4.70
2018-03-25T08:24:38.630Z,4.90
2018-03-25T08:27:06.631Z,4.80
2018-03-25T08:29:34.650Z,5.00
2018-03-25T08:32:03.413Z,5.20
2018-03-25T08:34:31.426Z,5.10
2018-03-25T08:37:00.197Z,5.40
2018-03-25T08:39:28.192Z,5.40
2018-03-25T08:41:56.212Z,5.60
2018-03-25T08:44:24.211Z,5.70
2018-03-25T08:46:52.208Z,5.90
2018-03-25T08:49:20.211Z,6.10
2018-03-25T08:51:48.220Z,6.10
2018-03-25T08:54:16.984Z,6.30
2018-03-25T08:56:44.996Z,6.20
2018-03-25T08:59:13.005Z,6.20
2018-03-25T09:01:40.993Z,6.30
2018-03-25T09:04:09.004Z,6.40
2018-03-25T09:06:37.044Z,6.50
2018-03-25T09:09:05.000Z,6.50
2018-03-25T09:11:33.004Z,6.60
2018-03-25T09:14:01.790Z,6.70
2018-03-25T09:16:29.784Z,6.70
2018-03-25T09:18:58.565Z,7.10
2018-03-25T09:21:26.624Z,7.00
2018-03-25T09:23:54.625Z,7.20
2018-03-25T09:26:22.629Z,7.40
2018-03-25T09:28:50.636Z,7.50
2018-03-25T09:31:18.630Z,7.60
2018-03-25T09:33:46.640Z,7.50
2018-03-25T09:36:14.644Z,7.50
2018-03-25T09:38:42.640Z,7.60
2018-03-25T09:41:10.653Z,7.80
2018-03-25T09:43:38.658Z,8.00
2018-03-25T09:46:06.657Z,8.30
2018-03-25T09:48:34.707Z,8.60
2018-03-25T09:51:02.705Z,8.60
2018-03-25T09:53:30.700Z,8.80
2018-03-25T09:55:58.700Z,9.00
2018-03-25T09:58:26.738Z,9.10
2018-03-25T10:01:00.352Z,9.10
2018-03-25T10:03:32.320Z,9.20
2018-03-25T10:06:01.084Z,9.30
2018-03-25T10:08:29.091Z,9.20
2018-03-25T10:10:57.853Z,9.80
2018-03-25T10:13:25.861Z,9.70
2018-03-25T10:15:53.868Z,9.80
2018-03-25T10:18:21.869Z,9.90
2018-03-25T10:20:49.872Z,9.90
2018-03-25T10:23:17.877Z,9.60
2018-03-25T10:25:47.557Z,9.60
2018-03-25T10:28:15.568Z,9.50
2018-03-25T10:30:43.572Z,9.70
2018-03-25T10:33:11.568Z,10.00
2018-03-25T10:35:40.344Z,10.10
2018-03-25T10:38:08.381Z,10.10
2018-03-25T10:40:36.376Z,10.50
2018-03-25T10:43:04.388Z,10.80
2018-03-25T10:45:32.401Z,10.90
2018-03-25T10:48:01.173Z,11.30
2018-03-25T10:50:29.194Z,11.20
2018-03-25T10:52:57.968Z,11.20
2018-03-25T10:55:26.733Z,11.00
2018-03-25T10:57:54.770Z,10.90
2018-03-25T11:00:22.751Z,11.00
2018-03-25T11:02:51.520Z,11.60
2018-03-25T11:05:19.532Z,11.60
2018-03-25T11:07:48.316Z,12.10
2018-03-25T11:10:16.313Z,12.00
2018-03-25T11:12:44.333Z,11.80
2018-03-25T11:15:12.340Z,11.80
2018-03-25T11:17:40.344Z,11.90
2018-03-25T11:20:08.352Z,11.60
2018-03-25T11:22:37.144Z,12.00
2018-03-25T11:25:05.140Z,11.90
2018-03-25T11:27:33.916Z,12.40
2018-03-25T11:30:01.931Z,12.30
2018-03-25T11:32:30.688Z,12.50
2018-03-25T11:34:58.710Z,12.50
2018-03-25T11:37:26.741Z,12.40
2018-03-25T11:39:54.732Z,12.70
2018-03-25T11:42:22.748Z,12.90
2018-03-25T11:44:51.525Z,12.80
2018-03-25T11:47:19.516Z,12.80
2018-03-25T11:49:47.537Z,12.90
2018-03-25T11:52:15.547Z,13.10
2018-03-25T11:54:43.532Z,13.30
2018-03-25T11:57:11.584Z,13.40
2018-03-25T11:59:39.596Z,13.40
2018-03-25T12:02:09.331Z,13.10
2018-03-25T12:04:37.360Z,13.20
2018-03-25T12:07:06.256Z,13.40
2018-03-25T12:09:35.020Z,13.30
2018-03-25T12:12:03.034Z,13.20
2018-03-25T12:14:31.040Z,13.00
2018-03-25T12:16:59.065Z,13.10
2018-03-25T12:19:27.075Z,13.10
2018-03-25T12:21:55.086Z,13.10
2018-03-25T12:24:23.844Z,13.50
2018-03-25T12:26:51.868Z,13.50
2018-03-25T12:29:20.644Z,13.70
2018-03-25T12:31:48.640Z,13.70
2018-03-25T12:34:17.543Z,14.20
2018-03-25T12:36:46.324Z,14.20
2018-03-25T12:39:14.321Z,14.20
2018-03-25T12:41:42.346Z,14.20
2018-03-25T12:44:10.361Z,13.80
2018-03-25T12:46:38.358Z,13.90
2018-03-25T12:49:06.368Z,13.80
2018-03-25T12:51:35.147Z,14.30
2018-03-25T12:54:03.145Z,14.30
2018-03-25T12:56:31.928Z,14.00
2018-03-25T12:58:59.940Z,13.90
2018-03-25T13:01:27.954Z,14.00
2018-03-25T13:03:55.960Z,13.90
2018-03-25T13:06:23.973Z,13.70
2018-03-25T13:08:52.740Z,13.40
2018-03-25T13:11:21.760Z,13.40
2018-03-25T13:13:49.768Z,13.40
2018-03-25T13:16:18.528Z,13.20
2018-03-25T13:18:46.545Z,13.20
2018-03-25T13:21:15.322Z,13.30
2018-03-25T13:23:43.324Z,13.20
2018-03-25T13:26:11.332Z,13.30
2018-03-25T13:28:39.343Z,13.60
2018-03-25T13:31:07.344Z,14.10
2018-03-25T13:33:35.356Z,14.80
2018-03-25T13:36:03.364Z,15.70
2018-03-25T13:38:31.365Z,16.40
2018-03-25T13:40:59.380Z,16.20
2018-03-25T13:43:27.388Z,16.40
2018-03-25T13:45:56.150Z,15.80
2018-03-25T13:48:24.161Z,15.70
2018-03-25T13:50:52.176Z,15.10
2018-03-25T13:53:20.173Z,15.00
2018-03-25T13:55:48.188Z,14.80
2018-03-25T13:58:16.204Z,15.00
2018-03-25T14:00:44.969Z,16.20
2018-03-25T14:03:12.983Z,16.10
2018-03-25T14:05:40.992Z,16.50
2018-03-25T14:08:08.992Z,16.90
2018-03-25T14:10:37.000Z,17.10
2018-03-25T14:13:05.016Z,17.50
2018-03-25T14:15:33.796Z,17.50
2018-03-25T14:18:03.320Z,17.00
2018-03-25T14:20:31.332Z,16.90
2018-03-25T14:23:00.112Z,17.20
2018-03-25T14:25:28.121Z,17.20
2018-03-25T14:27:56.142Z,17.00
2018-03-25T14:30:24.148Z,16.70
2018-03-25T14:32:52.172Z,17.30
2018-03-25T14:35:20.184Z,17.60
2018-03-25T14:37:48.216Z,17.70
2018-03-25T14:40:16.996Z,18.50
2018-03-25T14:42:45.017Z,18.40
2018-03-25T14:45:13.020Z,18.70
2018-03-25T14:47:41.041Z,18.50
2018-03-25T14:50:09.056Z,18.40
2018-03-25T14:52:37.825Z,18.20
2018-03-25T14:55:05.840Z,18.20
2018-03-25T14:57:34.624Z,18.60
2018-03-25T15:00:02.638Z,18.50
2018-03-25T15:02:30.651Z,18.60
2018-03-25T15:04:58.672Z,18.60
2018-03-25T15:07:26.678Z,18.40
2018-03-25T15:09:55.457Z,17.30
2018-03-25T15:12:23.548Z,17.30
2018-03-25T15:14:51.472Z,17.90
2018-03-25T15:17:19.484Z,18.30
2018-03-25T15:19:48.489Z,18.30
2018-03-25T15:22:16.492Z,18.50
2018-03-25T15:24:44.512Z,18.40
2018-03-25T15:27:12.528Z,18.00
2018-03-25T15:29:41.529Z,18.20
2018-03-25T15:32:09.552Z,17.80
2018-03-25T15:34:37.568Z,17.40
2018-03-25T15:37:05.569Z,17.20
2018-03-25T15:39:33.579Z,17.60
2018-03-25T15:42:01.613Z,17.10
2018-03-25T15:44:30.396Z,16.30
2018-03-25T15:46:59.176Z,16.30
2018-03-25T15:49:27.197Z,16.20
2018-03-25T15:51:55.217Z,16.40
2018-03-25T15:54:23.232Z,16.50
2018-03-25T15:56:51.245Z,16.00
2018-03-25T15:59:19.244Z,15.50
2018-03-25T16:01:47.252Z,15.20
2018-03-25T16:04:15.260Z,14.80
2018-03-25T16:06:43.252Z,14.50
2018-03-25T16:09:11.288Z,14.40
2018-03-25T16:11:39.285Z,14.00
2018-03-25T16:14:07.285Z,13.80
2018-03-25T16:16:35.295Z,13.60
2018-03-25T16:19:04.064Z,13.60
2018-03-25T16:21:32.070Z,13.50
2018-03-25T16:24:00.142Z,13.40
2018-03-25T16:26:28.147Z,13.10
2018-03-25T16:28:56.912Z,12.90
2018-03-25T16:31:24.921Z,12.80
2018-03-25T16:33:53.691Z,12.70
2018-03-25T16:36:21.762Z,12.60
2018-03-25T16:38:49.714Z,12.70
2018-03-25T16:41:17.728Z,12.70
2018-03-25T16:43:45.724Z,12.60
2018-03-25T16:46:13.736Z,12.60
2018-03-25T16:48:42.513Z,12.60
2018-03-25T16:51:10.508Z,12.50
2018-03-25T16:53:40.024Z,12.50
2018-03-25T16:56:09.004Z,12.50
2018-03-25T16:58:37.024Z,12.50
2018-03-25T17:01:05.053Z,12.40
2018-03-25T17:03:33.060Z,12.20
2018-03-25T17:06:01.059Z,12.20
2018-03-25T17:08:29.115Z,12.10
2018-03-25T17:10:57.848Z,11.80
2018-03-25T17:13:25.872Z,11.80
2018-03-25T17:15:54.636Z,11.70
2018-03-25T17:18:22.650Z,11.60
2018-03-25T17:20:51.576Z,11.60
2018-03-25T17:23:19.585Z,11.50
2018-03-25T17:25:47.593Z,11.40
2018-03-25T17:28:15.588Z,11.30
2018-03-25T17:30:44.362Z,11.00
2018-03-25T17:33:12.368Z,11.00
2018-03-25T17:35:41.141Z,10.80
2018-03-25T17:38:09.136Z,10.70
2018-03-25T17:40:37.148Z,10.60
2018-03-25T17:43:05.144Z,10.40
2018-03-25T17:45:33.149Z,10.20
2018-03-25T17:48:01.163Z,10.20
2018-03-25T17:50:29.164Z,10.10
2018-03-25T17:52:57.951Z,9.80
2018-03-25T17:55:25.961Z,9.70
2018-03-25T17:57:53.957Z,9.70
2018-03-25T18:00:22.880Z,9.60
2018-03-25T18:02:50.884Z,9.50
2018-03-25T18:05:18.874Z,9.40
2018-03-25T18:07:46.880Z,9.30
2018-03-25T18:10:15.728Z,9.00
2018-03-25T18:12:43.692Z,8.90
2018-03-25T18:15:11.706Z,8.80
2018-03-25T18:17:39.706Z,8.80
2018-03-25T18:20:07.693Z,8.70
2018-03-25T18:22:35.744Z,8.50
2018-03-25T18:25:03.752Z,8.40
2018-03-25T18:27:31.776Z,8.30
2018-03-25T18:29:59.784Z,8.30
2018-03-25T18:32:27.790Z,8.20
2018-03-25T18:34:56.092Z,8.20
2018-03-25T18:37:24.096Z,8.10
2018-03-25T18:39:52.915Z,7.70
2018-03-25T18:42:20.857Z,7.70
2018-03-25T18:44:48.864Z,7.60
2018-03-25T18:47:17.636Z,7.50
2018-03-25T18:49:45.675Z,7.50
2018-03-25T18:52:13.680Z,7.50
2018-03-25T18:54:41.679Z,7.50
2018-03-25T18:57:09.678Z,7.50
2018-03-25T18:59:37.900Z,7.40
2018-03-25T19:02:06.673Z,7.30
2018-03-25T19:04:34.693Z,7.20
2018-03-25T19:07:02.704Z,7.20
2018-03-25T19:09:30.710Z,7.20
2018-03-25T19:11:58.696Z,7.10
2018-03-25T19:14:26.714Z,6.80
2018-03-25T19:16:55.484Z,6.70
2018-03-25T19:19:23.475Z,6.60
2018-03-25T19:21:51.485Z,6.30
2018-03-25T19:24:20.241Z,5.90
2018-03-25T19:26:48.228Z,5.90
2018-03-25T19:29:16.241Z,5.80
2018-03-25T19:31:45.000Z,5.90
2018-03-25T19:34:12.984Z,5.80
2018-03-25T19:36:41.009Z,5.70
2018-03-25T19:39:09.780Z,5.90
2018-03-25T19:41:37.768Z,5.80
2018-03-25T19:44:05.778Z,5.90
2018-03-25T19:46:34.548Z,5.80
2018-03-25T19:49:02.540Z,5.80
2018-03-25T19:51:30.549Z,5.80
2018-03-25T19:53:59.312Z,5.60
2018-03-25T19:56:28.813Z,5.50
2018-03-25T19:58:57.652Z,5.50
2018-03-25T20:01:25.663Z,5.50
2018-03-25T20:03:53.649Z,5.30
2018-03-25T20:06:21.660Z,5.10
2018-03-25T20:08:49.661Z,5.20
2018-03-25T20:11:17.650Z,5.10
2018-03-25T20:13:45.653Z,4.90
2018-03-25T20:16:14.420Z,4.90
2018-03-25T20:18:42.417Z,4.80
2018-03-25T20:21:10.424Z,4.90
2018-03-25T20:23:39.192Z,4.60
2018-03-25T20:26:07.181Z,4.50
2018-03-25T20:28:35.179Z,4.60
2018-03-25T20:31:03.956Z,4.50
2018-03-25T20:33:31.956Z,4.50
2018-03-25T20:35:59.967Z,4.30
2018-03-25T20:38:27.988Z,4.30
2018-03-25T20:40:55.982Z,4.40
2018-03-25T20:43:23.984Z,4.30
2018-03-25T20:45:51.988Z,4.20
2018-03-25T20:48:19.980Z,4.20
2018-03-25T20:50:47.983Z,4.10
2018-03-25T20:53:15.988Z,4.10
2018-03-25T20:55:43.977Z,4.00
2018-03-25T20:58:11.976Z,4.00
2018-03-25T21:00:39.981Z,4.10
2018-03-25T21:03:08.731Z,4.00
2018-03-25T21:05:37.124Z,3.90
2018-03-25T21:08:05.129Z,3.90
2018-03-25T21:10:33.117Z,3.80
2018-03-25T21:13:01.119Z,3.80
2018-03-25T21:15:29.884Z,3.80
2018-03-25T21:17:57.876Z,3.70
2018-03-25T21:20:25.900Z,3.70
2018-03-25T21:22:53.896Z,3.40
2018-03-25T21:25:21.885Z,3.10
2018-03-25T21:27:49.892Z,3.10
2018-03-25T21:30:17.900Z,3.00
2018-03-25T21:32:45.888Z,3.20
2018-03-25T21:35:14.657Z,3.30
2018-03-25T21:37:42.665Z,3.20
2018-03-25T21:40:10.656Z,3.10
2018-03-25T21:42:39.432Z,2.80
2018-03-25T21:45:07.432Z,2.70
2018-03-25T21:47:35.426Z,2.70
2018-03-25T21:50:04.202Z,2.50
2018-03-25T21:52:32.201Z,2.40
2018-03-25T21:55:00.190Z,2.40
2018-03-25T21:57:28.960Z,2.70
2018-03-25T21:59:56.965Z,2.70
2018-03-25T22:02:25.720Z,2.80
2018-03-25T22:04:53.716Z,2.80
2018-03-25T22:07:21.729Z,2.80
2018-03-25T22:09:49.720Z,2.70
2018-03-25T22:12:18.498Z,2.60
2018-03-25T22:14:46.502Z,2.60
2018-03-25T22:17:14.480Z,2.60
2018-03-25T22:19:43.244Z,2.30
2018-03-25T22:22:11.244Z,2.20
2018-03-25T22:24:43.904Z,2.10
2018-03-25T22:27:11.918Z,2.00
2018-03-25T22:29:39.904Z,1.80
2018-03-25T22:32:07.947Z,1.90
2018-03-25T22:34:35.897Z,2.00
2018-03-25T22:37:04.653Z,1.90
2018-03-25T22:39:32.656Z,1.80
2018-03-25T22:42:00.656Z,1.90
2018-03-25T22:44:29.430Z,1.80
2018-03-25T22:46:57.432Z,1.70
2018-03-25T22:49:25.444Z,1.70
2018-03-25T22:51:54.184Z,1.60
2018-03-25T22:54:22.189Z,1.60
2018-03-25T22:56:50.203Z,1.70
2018-03-25T22:59:18.944Z,1.90
2018-03-25T23:01:46.945Z,1.90
2018-03-25T23:04:14.949Z,1.90
2018-03-25T23:06:43.705Z,2.00
2018-03-25T23:09:11.709Z,1.90
2018-03-25T23:11:39.712Z,2.00
2018-03-25T23:14:08.472Z,1.90
2018-03-25T23:16:36.476Z,1.90
2018-03-25T23:19:04.484Z,2.00
2018-03-25T23:21:33.252Z,1.90
2018-03-25T23:24:01.256Z,1.90
2018-03-25T23:26:29.258Z,1.90
2018-03-25T23:28:58.032Z,1.70
2018-03-25T23:31:26.036Z,1.60
2018-03-25T23:33:54.808Z,1.70
2018-03-25T23:36:22.803Z,1.60
2018-03-25T23:38:50.797Z,1.70
2018-03-25T23:41:19.568Z,1.50
2018-03-25T23:43:47.561Z,1.50
2018-03-25T23:46:17.069Z,1.10
2018-03-25T23:48:45.081Z,1.10
2018-03-25T23:51:13.838Z,1.00
2018-03-25T23:53:41.836Z,0.90
2018-03-25T23:56:09.840Z,1.00
2018-03-25T23:58:37.828Z,0.90
